Time;durP1;ratioP1;P1;durP2;ratioP2;P2;SDS_P1;SDS_P2;PMS_P1;PMS_P2;Temp;Humidity;BMP_temperature;BMP_pressure;BME280_temperature;BME280_humidity;BME280_pressure;Samples;Min_cycle;Max_cycle;Signal;HPM_P1;HPM_P2
2021/03/01 00:02:24;;;;;;;8.93;5.83;;;;;;;4.24;100.00;103535.01;1841797;76;936865;-72
2021/03/01 00:04:54;;;;;;;7.75;5.33;;;;;;;4.33;100.00;103533.94;1833240;76;934398;-72
2021/03/01 00:07:24;;;;;;;6.73;4.90;;;;;;;4.12;100.00;103529.05;1837671;77;934469;-72
2021/03/01 00:09:54;;;;;;;7.73;5.50;;;;;;;4.03;100.00;103535.60;1829204;76;933264;-72
2021/03/01 00:12:24;;;;;;;6.60;5.10;;;;;;;4.18;100.00;103535.73;1824229;76;934378;-71
2021/03/01 00:14:54;;;;;;;7.93;5.47;;;;;;;4.03;100.00;103532.84;1812125;76;942855;-71
2021/03/01 00:17:24;;;;;;;8.07;5.80;;;;;;;3.97;100.00;103531.69;1824092;78;934680;-72
2021/03/01 00:19:54;;;;;;;8.78;5.47;;;;;;;4.06;100.00;103531.14;1819085;77;933202;-72
2021/03/01 00:22:23;;;;;;;11.30;5.57;;;;;;;4.12;100.00;103527.67;1847225;76;933229;-72
2021/03/01 00:24:53;;;;;;;9.07;5.63;;;;;;;3.96;100.00;103534.60;1826287;77;936542;-71
2021/03/01 00:27:23;;;;;;;7.10;4.87;;;;;;;3.85;100.00;103537.19;1833584;77;934462;-71
2021/03/01 00:29:53;;;;;;;8.28;5.72;;;;;;;4.06;100.00;103536.09;1835096;75;934450;-71
2021/03/01 00:32:23;;;;;;;8.03;5.67;;;;;;;4.28;100.00;103544.66;1841713;76;933249;-71
2021/03/01 00:34:52;;;;;;;10.85;5.47;;;;;;;4.39;100.00;103535.48;1827485;76;934745;-71
2021/03/01 00:37:22;;;;;;;8.33;5.93;;;;;;;4.57;100.00;103539.36;1831562;77;936928;-71
2021/03/01 00:39:52;;;;;;;8.60;5.87;;;;;;;4.48;100.00;103535.78;1835114;76;934901;-71
2021/03/01 00:42:22;;;;;;;10.40;6.10;;;;;;;4.62;100.00;103528.63;1809910;78;933241;-71
2021/03/01 00:44:52;;;;;;;10.48;6.60;;;;;;;4.64;100.00;103524.34;1804166;77;936595;-71
2021/03/01 00:47:23;;;;;;;10.77;6.40;;;;;;;4.95;100.00;103519.16;1810259;78;936575;-73
2021/03/01 00:49:52;;;;;;;7.03;5.50;;;;;;;5.03;100.00;103521.84;1804298;77;936968;-73
2021/03/01 00:52:24;;;;;;;10.10;5.97;;;;;;;5.20;100.00;103515.69;1810321;78;933447;-72
2021/03/01 00:54:53;;;;;;;11.88;6.45;;;;;;;5.39;100.00;103508.27;1798109;78;936564;-72
2021/03/01 00:57:23;;;;;;;9.53;6.57;;;;;;;5.41;100.00;103506.72;1816107;77;936708;-72
2021/03/01 00:59:53;;;;;;;8.07;5.97;;;;;;;5.41;100.00;103509.48;1798344;78;934523;-72
2021/03/01 01:02:23;;;;;;;10.40;5.97;;;;;;;5.32;100.00;103496.80;1816161;77;934762;-72
2021/03/01 01:04:53;;;;;;;9.00;6.10;;;;;;;5.28;100.00;103498.22;1798229;78;935348;-72
2021/03/01 01:07:23;;;;;;;11.23;6.90;;;;;;;5.49;100.00;103501.13;1816231;77;934524;-73
2021/03/01 01:09:52;;;;;;;10.68;6.72;;;;;;;5.43;100.00;103500.52;1798318;78;936513;-72
2021/03/01 01:12:22;;;;;;;12.47;6.77;;;;;;;5.45;100.00;103495.13;1810048;78;936771;-72
2021/03/01 01:14:52;;;;;;;9.97;6.47;;;;;;;5.55;100.00;103496.77;1804419;77;935335;-73
2021/03/01 01:17:22;;;;;;;8.00;6.13;;;;;;;5.73;100.00;103488.49;1810314;78;933360;-72
2021/03/01 01:19:52;;;;;;;12.00;7.27;;;;;;;5.61;100.00;103489.97;1798176;78;933632;-72
2021/03/01 01:22:21;;;;;;;8.07;6.53;;;;;;;5.59;100.00;103485.70;1816224;77;936477;-71
2021/03/01 01:24:51;;;;;;;13.70;7.60;;;;;;;5.60;100.00;103473.64;1798402;78;933532;-72
2021/03/01 01:27:21;;;;;;;10.00;6.63;;;;;;;5.77;100.00;103471.04;1816178;77;935561;-72
2021/03/01 01:29:51;;;;;;;8.60;6.12;;;;;;;5.70;100.00;103462.64;1798240;78;936527;-72
2021/03/01 01:32:21;;;;;;;10.97;6.90;;;;;;;5.65;100.00;103469.80;1816236;77;934451;-72
2021/03/01 01:34:51;;;;;;;9.45;6.42;;;;;;;5.61;100.00;103467.91;1798136;78;936608;-72
2021/03/01 01:37:21;;;;;;;12.93;7.33;;;;;;;5.82;100.00;103467.16;1816268;77;934419;-72
2021/03/01 01:39:50;;;;;;;11.57;7.10;;;;;;;5.75;100.00;103468.97;1798001;78;935417;-72
2021/03/01 01:42:20;;;;;;;9.90;7.10;;;;;;;5.76;100.00;103463.28;1816054;77;936538;-73
2021/03/01 01:44:50;;;;;;;8.67;6.50;;;;;;;5.87;100.00;103458.69;1798162;78;934919;-72
2021/03/01 01:47:21;;;;;;;12.23;8.00;;;;;;;5.94;100.00;103456.91;1816184;77;934748;-72
2021/03/01 01:49:51;;;;;;;13.57;8.20;;;;;;;6.03;100.00;103463.17;1798290;78;936581;-72
2021/03/01 01:52:20;;;;;;;17.20;11.17;;;;;;;6.04;100.00;103454.34;1816215;77;935364;-72
2021/03/01 01:54:50;;;;;;;25.07;16.53;;;;;;;6.31;100.00;103446.75;1798216;78;938642;-72
2021/03/01 01:57:20;;;;;;;19.97;13.67;;;;;;;6.38;100.00;103445.77;1809893;78;938679;-72
2021/03/01 01:59:50;;;;;;;26.67;16.33;;;;;;;6.53;100.00;103446.27;1798409;78;938963;-72
2021/03/01 02:02:21;;;;;;;29.60;16.73;;;;;;;6.56;100.00;103444.48;1809865;78;938817;-72
2021/03/01 02:04:54;;;;;;;30.95;18.87;;;;;;;6.49;100.00;103433.39;1797931;78;937790;-72
2021/03/01 02:07:28;;;;;;;31.90;18.85;;;;;;;6.48;100.00;103440.47;1780246;78;938615;-72
2021/03/01 02:10:07;;;;;;;33.08;18.42;;;;;;;6.59;100.00;103445.50;1798300;76;938637;-72
2021/03/01 02:12:45;;;;;;;30.17;18.03;;;;;;;6.60;100.00;103437.52;1810226;77;936770;-72
2021/03/01 02:15:18;;;;;;;29.50;19.27;;;;;;;6.61;100.00;103444.77;1810047;78;938591;-72
2021/03/01 02:17:48;;;;;;;29.73;19.13;;;;;;;6.62;100.00;103448.73;1797978;77;937431;-72
2021/03/01 02:20:18;;;;;;;33.77;20.30;;;;;;;6.58;100.00;103445.16;1810069;78;938659;-71
2021/03/01 02:22:49;;;;;;;33.17;20.27;;;;;;;6.63;100.00;103455.11;1798005;77;948366;-73
2021/03/01 02:25:21;;;;;;;34.33;21.27;;;;;;;6.61;100.00;103448.91;1810107;78;938601;-72
2021/03/01 02:27:53;;;;;;;33.10;20.92;;;;;;;6.65;100.00;103448.84;1798204;78;938754;-72
2021/03/01 02:30:27;;;;;;;34.63;21.23;;;;;;;6.57;100.00;103448.45;1810156;78;938781;-71
2021/03/01 02:33:01;;;;;;;33.70;20.75;;;;;;;6.67;100.00;103444.00;1768828;78;938711;-71
2021/03/01 02:35:33;;;;;;;30.12;18.25;;;;;;;6.68;100.00;103446.54;1810162;78;938670;-71
2021/03/01 02:38:06;;;;;;;22.52;14.43;;;;;;;6.74;100.00;103442.14;1798064;76;938789;-71
2021/03/01 02:40:39;;;;;;;21.73;14.47;;;;;;;6.51;100.00;103445.59;1810097;78;936768;-71
2021/03/01 02:43:10;;;;;;;18.98;13.40;;;;;;;6.44;100.00;103437.77;1797958;78;938638;-72
2021/03/01 02:45:42;;;;;;;21.80;14.00;;;;;;;6.37;100.00;103432.19;1810012;78;936872;-71
2021/03/01 02:48:14;;;;;;;20.17;13.80;;;;;;;6.42;100.00;103430.23;1780417;79;938613;-72
2021/03/01 02:50:45;;;;;;;21.23;13.58;;;;;;;6.34;100.00;103436.17;1810168;78;937218;-71
2021/03/01 02:53:17;;;;;;;25.25;14.20;;;;;;;6.38;100.00;103432.49;1809945;78;937544;-71
2021/03/01 02:55:48;;;;;;;21.57;14.17;;;;;;;6.37;100.00;103427.49;1798501;78;938798;-73
2021/03/01 02:58:21;;;;;;;22.77;14.10;;;;;;;6.40;100.00;103417.46;1780506;79;938715;-71
2021/03/01 03:00:52;;;;;;;27.50;15.53;;;;;;;6.45;100.00;103420.16;1798330;78;938763;-72
2021/03/01 03:03:27;;;;;;;27.33;16.53;;;;;;;6.39;100.00;103427.31;1809901;78;938708;-71
2021/03/01 03:05:57;;;;;;;30.50;16.47;;;;;;;6.51;100.00;103425.74;1768912;79;938662;-72
2021/03/01 03:08:29;;;;;;;26.20;17.33;;;;;;;6.34;100.00;103407.19;1810263;78;938969;-72
2021/03/01 03:11:00;;;;;;;28.52;16.90;;;;;;;6.37;100.00;103415.63;1798447;78;938905;-71
2021/03/01 03:13:33;;;;;;;26.47;17.63;;;;;;;6.40;100.00;103416.08;1810308;78;938727;-71
2021/03/01 03:16:05;;;;;;;32.17;19.23;;;;;;;6.43;100.00;103416.72;1798520;78;938576;-71
2021/03/01 03:18:36;;;;;;;29.07;18.63;;;;;;;6.37;100.00;103410.10;1810378;78;936772;-71
2021/03/01 03:21:06;;;;;;;29.57;19.33;;;;;;;6.30;100.00;103411.39;1798224;78;938643;-71
2021/03/01 03:23:36;;;;;;;30.57;19.37;;;;;;;6.37;100.00;103411.48;1810318;78;936742;-71
2021/03/01 03:26:06;;;;;;;33.13;20.00;;;;;;;6.37;100.00;103417.00;1798169;78;938663;-70
2021/03/01 03:28:36;;;;;;;35.20;19.87;;;;;;;6.42;100.00;103425.53;1810121;78;935735;-71
2021/03/01 03:31:06;;;;;;;32.03;18.73;;;;;;;6.42;100.00;103414.48;1798375;78;937543;-71
2021/03/01 03:33:36;;;;;;;31.87;19.83;;;;;;;6.37;100.00;103406.79;1810164;78;935444;-71
2021/03/01 03:36:08;;;;;;;41.27;20.90;;;;;;;6.36;100.00;103410.63;1798232;78;937465;-71
2021/03/01 03:38:41;;;;;;;36.00;20.30;;;;;;;6.26;100.00;103402.31;1810158;78;935507;-71
2021/03/01 03:41:29;;;;;;;40.37;21.17;;;;;;;6.38;100.00;103402.98;1741128;81;937572;-71
2021/03/01 03:44:01;;;;;;;40.52;20.37;;;;;;;6.24;100.00;103401.66;1761924;80;938713;-71
2021/03/01 03:46:32;;;;;;;34.23;21.10;;;;;;;6.30;100.00;103402.25;1773463;80;937603;-71
2021/03/01 03:49:02;;;;;;;36.37;20.73;;;;;;;6.31;100.00;103399.30;1730102;81;938910;-71
2021/03/01 03:51:34;;;;;;;35.57;19.90;;;;;;;6.43;100.00;103386.36;1773646;80;936778;-71
2021/03/01 03:54:10;;;;;;;37.88;21.20;;;;;;;6.45;100.00;103392.55;1762014;80;938692;-71
2021/03/01 03:56:43;;;;;;;36.53;20.27;;;;;;;6.35;100.00;103389.58;1765817;78;936886;-71
2021/03/01 03:59:14;;;;;;;35.63;19.67;;;;;;;6.36;100.00;103395.96;1764392;80;938824;-72
2021/03/01 04:01:44;;;;;;;38.20;21.50;;;;;;;6.39;100.00;103394.17;1764619;79;936703;-73
2021/03/01 04:04:15;;;;;;;36.33;20.53;;;;;;;6.49;100.00;103397.48;1764326;79;938732;-72
2021/03/01 04:06:47;;;;;;;36.70;21.47;;;;;;;6.35;100.00;103400.63;1764433;79;936801;-72
2021/03/01 04:09:19;;;;;;;32.57;19.87;;;;;;;6.29;100.00;103399.18;1764441;78;938811;-72
2021/03/01 04:11:51;;;;;;;36.83;20.43;;;;;;;6.31;100.00;103405.34;1752895;79;938784;-72
2021/03/01 04:14:22;;;;;;;37.83;21.77;;;;;;;6.39;100.00;103405.22;1821451;77;938722;-71
2021/03/01 04:16:55;;;;;;;41.02;21.07;;;;;;;6.39;100.00;103401.94;1817053;77;938615;-71
2021/03/01 04:19:28;;;;;;;36.60;21.40;;;;;;;6.39;100.00;103404.70;1829153;77;938752;-72
2021/03/01 04:22:00;;;;;;;36.08;21.55;;;;;;;6.34;100.00;103407.19;1817237;77;938499;-71
2021/03/01 04:24:32;;;;;;;37.97;20.93;;;;;;;6.38;100.00;103414.03;1829110;77;938685;-71
2021/03/01 04:27:05;;;;;;;35.07;20.00;;;;;;;6.45;100.00;103405.84;1817245;77;938668;-71
2021/03/01 04:29:37;;;;;;;42.17;21.17;;;;;;;6.46;100.00;103410.84;1806241;78;936707;-71
2021/03/01 04:32:06;;;;;;;37.83;21.87;;;;;;;6.53;100.00;103407.09;1831151;77;938667;-72
2021/03/01 04:34:38;;;;;;;38.83;20.97;;;;;;;6.45;100.00;103411.36;1843311;77;936970;-72
2021/03/01 04:37:08;;;;;;;40.20;21.60;;;;;;;6.48;100.00;103417.00;1831064;76;938703;-71
2021/03/01 04:39:38;;;;;;;38.23;21.83;;;;;;;6.50;100.00;103413.02;1843408;77;936971;-71
2021/03/01 04:42:09;;;;;;;37.97;21.80;;;;;;;6.58;100.00;103410.64;1831065;77;938514;-71
2021/03/01 04:44:40;;;;;;;42.40;22.53;;;;;;;6.51;100.00;103405.55;1843189;77;936959;-72
2021/03/01 04:47:11;;;;;;;42.47;22.77;;;;;;;6.57;100.00;103407.55;1831083;76;938698;-71
2021/03/01 04:49:41;;;;;;;41.77;23.47;;;;;;;6.65;100.00;103396.37;1843185;77;937036;-71
2021/03/01 04:52:13;;;;;;;44.43;22.17;;;;;;;6.59;100.00;103402.70;1843308;77;938709;-71
2021/03/01 04:54:43;;;;;;;37.67;22.63;;;;;;;6.51;100.00;103395.89;1843295;77;936814;-71
2021/03/01 04:57:16;;;;;;;45.73;23.47;;;;;;;6.56;100.00;103406.69;1838571;76;938821;-71
2021/03/01 04:59:48;;;;;;;40.60;23.53;;;;;;;6.60;100.00;103401.62;1797662;78;938710;-74
2021/03/01 05:02:18;;;;;;;48.40;25.70;;;;;;;6.55;100.00;103403.59;1821127;76;938982;-71
2021/03/01 05:04:49;;;;;;;45.77;24.97;;;;;;;6.58;100.00;103402.36;1787103;78;938803;-71
2021/03/01 05:07:21;;;;;;;45.87;24.27;;;;;;;6.61;100.00;103401.44;1799002;78;938874;-72
2021/03/01 05:09:52;;;;;;;46.10;24.77;;;;;;;6.67;100.00;103397.04;1758333;79;938855;-72
2021/03/01 05:12:21;;;;;;;49.50;25.57;;;;;;;6.68;100.00;103411.16;1799083;78;938534;-71
2021/03/01 05:14:51;;;;;;;50.00;27.13;;;;;;;6.69;100.00;103404.59;1787010;78;937840;-71
2021/03/01 05:17:21;;;;;;;51.40;26.93;;;;;;;6.68;100.00;103407.02;1798920;78;938720;-72
2021/03/01 05:19:51;;;;;;;47.83;25.87;;;;;;;6.70;100.00;103411.30;1787277;78;937403;-72
2021/03/01 05:22:21;;;;;;;50.63;27.30;;;;;;;6.72;100.00;103411.09;1798929;78;938605;-71
2021/03/01 05:24:50;;;;;;;47.10;26.93;;;;;;;6.74;100.00;103406.23;1787151;78;938798;-71
2021/03/01 05:27:22;;;;;;;48.17;26.43;;;;;;;6.72;100.00;103410.56;1798739;78;937465;-71
2021/03/01 05:29:53;;;;;;;51.63;27.53;;;;;;;6.73;100.00;103410.05;1787510;78;938559;-72
2021/03/01 05:32:23;;;;;;;50.10;28.30;;;;;;;6.61;100.00;103404.20;1799039;78;938741;-71
2021/03/01 05:34:55;;;;;;;55.88;28.52;;;;;;;6.59;100.00;103413.75;1787133;78;938613;-71
2021/03/01 05:37:25;;;;;;;54.87;28.37;;;;;;;6.62;100.00;103419.72;1799049;78;938551;-71
2021/03/01 05:39:56;;;;;;;54.10;29.02;;;;;;;6.68;100.00;103409.77;1787119;78;938773;-71
2021/03/01 05:42:29;;;;;;;56.47;29.97;;;;;;;6.59;100.00;103410.42;1799069;78;937644;-71
2021/03/01 05:44:59;;;;;;;53.40;29.90;;;;;;;6.53;100.00;103416.75;1787103;78;937915;-71
2021/03/01 05:47:31;;;;;;;53.23;29.00;;;;;;;6.65;100.00;103411.55;1798826;78;938921;-72
2021/03/01 05:50:02;;;;;;;55.30;28.75;;;;;;;6.68;100.00;103417.54;1787262;77;938785;-71
2021/03/01 05:52:33;;;;;;;53.03;28.83;;;;;;;6.60;100.00;103415.43;1799120;78;936858;-71
2021/03/01 05:55:05;;;;;;;50.53;30.23;;;;;;;6.66;100.00;103411.89;1787149;78;938815;-71
2021/03/01 05:57:35;;;;;;;58.10;30.23;;;;;;;6.65;100.00;103412.94;1799043;78;937014;-71
2021/03/01 06:00:07;;;;;;;58.40;31.13;;;;;;;6.74;100.00;103408.48;1787020;77;938661;-71
2021/03/01 06:02:38;;;;;;;60.03;33.17;;;;;;;6.75;100.00;103405.19;1798723;78;935768;-71
2021/03/01 06:05:10;;;;;;;58.63;33.73;;;;;;;6.79;100.00;103409.27;1787169;78;938660;-72
2021/03/01 06:07:40;;;;;;;58.70;33.33;;;;;;;6.81;100.00;103408.52;1798889;78;936950;-71
2021/03/01 06:10:13;;;;;;;64.30;33.67;;;;;;;6.80;100.00;103409.05;1787035;78;938624;-71
2021/03/01 06:12:42;;;;;;;55.50;32.20;;;;;;;6.90;100.00;103406.48;1798923;78;936792;-71
2021/03/01 06:15:15;;;;;;;61.33;33.17;;;;;;;6.94;100.00;103409.17;1799044;78;938671;-71
2021/03/01 06:18:05;;;;;;;60.37;34.60;;;;;;;6.93;100.00;103399.20;1799012;78;936713;-74
2021/03/01 06:20:36;;;;;;;54.87;31.67;;;;;;;6.88;100.00;103402.56;1769779;80;937150;-72
2021/03/01 06:23:06;;;;;;;57.13;32.58;;;;;;;6.94;100.00;103400.89;1787200;78;937891;-72
2021/03/01 06:25:36;;;;;;;58.63;32.97;;;;;;;6.83;100.00;103401.77;1798956;78;936979;-72
2021/03/01 06:28:08;;;;;;;57.10;33.13;;;;;;;6.89;100.00;103393.19;1786870;77;938751;-72
2021/03/01 06:30:40;;;;;;;57.73;33.97;;;;;;;6.86;100.00;103398.59;1798816;78;936590;-72
2021/03/01 06:33:15;;;;;;;68.63;36.50;;;;;;;6.89;100.00;103393.75;1787094;78;938642;-71
2021/03/01 06:35:48;;;;;;;60.30;33.97;;;;;;;6.94;100.00;103396.22;1798944;78;936753;-72
2021/03/01 06:38:29;;;;;;;64.20;35.27;;;;;;;6.95;100.00;103395.17;1799019;78;938576;-72
2021/03/01 06:41:14;;;;;;;59.88;34.20;;;;;;;7.00;100.00;103398.20;1787124;78;938565;-71
2021/03/01 06:43:57;;;;;;;64.47;36.23;;;;;;;6.94;100.00;103396.74;1798932;78;936580;-71
2021/03/01 06:46:29;;;;;;;61.13;35.13;;;;;;;6.94;100.00;103395.36;1798605;78;938579;-71
2021/03/01 06:49:13;;;;;;;64.87;36.68;;;;;;;6.92;100.00;103396.95;1787097;78;938697;-73
2021/03/01 06:51:43;;;;;;;65.93;35.70;;;;;;;6.98;100.00;103396.14;1769831;80;936735;-72
2021/03/01 06:54:15;;;;;;;61.40;35.63;;;;;;;6.92;100.00;103398.34;1798940;78;938741;-74
2021/03/01 06:56:45;;;;;;;61.53;35.20;;;;;;;6.93;100.00;103406.11;1798191;77;936792;-73
2021/03/01 06:59:17;;;;;;;66.00;35.77;;;;;;;7.00;100.00;103408.39;1799134;78;938642;-72
2021/03/01 07:01:52;;;;;;;60.10;35.17;;;;;;;7.06;100.00;103399.31;1790561;78;937845;-75
2021/03/01 07:04:24;;;;;;;60.80;34.37;;;;;;;7.00;100.00;103398.72;1798916;78;938549;-71
2021/03/01 07:06:55;;;;;;;64.23;36.70;;;;;;;7.04;100.00;103394.50;1787122;78;938666;-72
2021/03/01 07:09:27;;;;;;;67.40;37.30;;;;;;;7.01;100.00;103401.30;1798793;78;938655;-71
2021/03/01 07:11:58;;;;;;;59.83;34.92;;;;;;;7.06;100.00;103401.53;1786767;78;940591;-72
2021/03/01 07:14:30;;;;;;;60.17;34.47;;;;;;;7.06;100.00;103402.08;1798761;78;938661;-71
2021/03/01 07:17:01;;;;;;;63.97;35.73;;;;;;;7.01;100.00;103395.77;1787035;78;938648;-72
2021/03/01 07:19:32;;;;;;;66.73;35.43;;;;;;;7.10;100.00;103396.48;1798627;78;938600;-71
2021/03/01 07:22:05;;;;;;;62.58;36.33;;;;;;;7.09;100.00;103392.00;1786969;78;938658;-71
2021/03/01 07:24:36;;;;;;;67.37;37.13;;;;;;;7.09;100.00;103390.62;1798823;78;936792;-71
2021/03/01 07:27:07;;;;;;;61.93;35.90;;;;;;;7.17;100.00;103388.56;1787095;78;938857;-71
2021/03/01 07:29:39;;;;;;;68.93;37.67;;;;;;;7.18;100.00;103392.19;1798674;78;936762;-74
2021/03/01 07:32:12;;;;;;;61.57;35.03;;;;;;;7.17;100.00;103384.41;1795977;78;938490;-71
2021/03/01 07:34:43;;;;;;;64.10;37.27;;;;;;;7.13;100.00;103383.63;1832937;76;936725;-71
2021/03/01 07:37:13;;;;;;;65.30;36.67;;;;;;;7.20;100.00;103379.00;1798838;78;938652;-71
2021/03/01 07:39:43;;;;;;;58.87;35.30;;;;;;;7.20;100.00;103379.86;1798702;78;936781;-71
2021/03/01 07:42:15;;;;;;;59.33;35.87;;;;;;;7.31;100.00;103374.31;1798862;78;938653;-71
2021/03/01 07:44:48;;;;;;;67.77;36.73;;;;;;;7.23;100.00;103372.53;1798868;78;936991;-73
2021/03/01 07:47:19;;;;;;;62.33;35.50;;;;;;;7.27;100.00;103360.02;1798941;78;939100;-71
2021/03/01 07:49:49;;;;;;;67.50;37.30;;;;;;;7.27;100.00;103360.02;1786983;78;938722;-71
2021/03/01 07:52:39;;;;;;;63.93;36.07;;;;;;;7.33;100.00;103359.22;1798975;78;937556;-71
2021/03/01 07:55:12;;;;;;;64.30;35.40;;;;;;;7.35;100.00;103352.63;1786902;78;938652;-71
2021/03/01 07:57:44;;;;;;;69.17;38.47;;;;;;;7.39;100.00;103356.70;1798763;78;936951;-71
2021/03/01 08:00:25;;;;;;;65.97;35.90;;;;;;;7.47;100.00;103350.48;1796367;78;938626;-71
2021/03/01 08:02:55;;;;;;;61.20;35.50;;;;;;;7.44;100.00;103351.42;1786759;77;938764;-71
2021/03/01 08:05:28;;;;;;;63.33;37.20;;;;;;;7.52;100.00;103352.11;1769480;80;938705;-71
2021/03/01 08:07:58;;;;;;;61.73;34.50;;;;;;;7.55;100.00;103348.93;1818193;76;938717;-71
2021/03/01 08:10:52;;;;;;;64.42;37.67;;;;;;;7.48;100.00;103351.34;1798865;78;938826;-71
2021/03/01 08:13:31;;;;;;;65.40;36.70;;;;;;;7.58;100.00;103347.66;1795575;77;938033;-71
2021/03/01 08:16:20;;;;;;;63.95;36.42;;;;;;;7.54;100.00;103353.27;1758397;79;938701;-71
2021/03/01 08:18:54;;;;;;;63.17;38.03;;;;;;;7.55;100.00;103344.78;1787132;77;938632;-72
2021/03/01 08:21:25;;;;;;;62.30;35.93;;;;;;;7.64;100.00;103348.23;1798903;78;938679;-72
2021/03/01 08:23:55;;;;;;;65.57;36.33;;;;;;;7.62;100.00;103354.48;1787202;78;937615;-72
2021/03/01 08:26:32;;;;;;;67.67;36.87;;;;;;;7.63;100.00;103355.67;1799150;78;938652;-72
2021/03/01 08:29:04;;;;;;;63.90;38.25;;;;;;;7.72;100.00;103348.91;1787419;77;938768;-72
2021/03/01 08:31:39;;;;;;;60.52;36.15;;;;;;;7.67;100.00;103349.20;1798796;78;936648;-72
2021/03/01 08:34:30;;;;;;;61.53;36.00;;;;;;;7.65;100.00;103348.04;1787204;78;938792;-72
2021/03/01 08:37:02;;;;;;;65.60;36.37;;;;;;;7.65;100.00;103338.36;1787291;78;938759;-71
2021/03/01 08:39:58;;;;;;;63.50;35.10;;;;;;;7.70;100.00;103344.10;1769781;80;936861;-72
2021/03/01 08:42:56;;;;;;;62.47;35.20;;;;;;;7.71;100.00;103340.28;1830213;77;938638;-72
2021/03/01 08:45:38;;;;;;;65.30;36.03;;;;;;;7.71;100.00;103338.04;1798889;78;939047;-72
2021/03/01 08:48:11;;;;;;;64.30;34.43;;;;;;;7.71;100.00;103348.58;1787168;78;938742;-71
2021/03/01 08:50:42;;;;;;;65.50;36.30;;;;;;;7.73;100.00;103350.62;1798944;78;936991;-72
2021/03/01 08:53:14;;;;;;;56.37;33.80;;;;;;;7.80;100.00;103345.11;1798937;78;938796;-72
2021/03/01 08:55:44;;;;;;;61.53;35.67;;;;;;;7.86;100.00;103341.53;1797852;77;936768;-71
2021/03/01 08:58:15;;;;;;;63.27;34.83;;;;;;;7.90;100.00;103340.05;1798968;78;939085;-72
2021/03/01 09:00:57;;;;;;;61.70;34.60;;;;;;;7.88;100.00;103342.16;1799081;78;936605;-71
2021/03/01 09:03:29;;;;;;;59.90;35.60;;;;;;;7.85;100.00;103341.20;1804802;77;937820;-72
2021/03/01 09:06:08;;;;;;;59.38;34.27;;;;;;;7.89;100.00;103328.66;1790080;78;938051;-72
2021/03/01 09:08:39;;;;;;;59.87;33.60;;;;;;;7.95;100.00;103336.67;1798939;78;935622;-72
2021/03/01 09:11:13;;;;;;;57.80;32.83;;;;;;;7.96;100.00;103334.23;1787062;78;937501;-71
2021/03/01 09:13:44;;;;;;;59.90;34.03;;;;;;;7.98;100.00;103327.41;1770033;80;936876;-71
2021/03/01 09:16:18;;;;;;;56.07;32.87;;;;;;;8.03;100.00;103328.18;1799050;78;938473;-71
2021/03/01 09:18:48;;;;;;;60.20;34.23;;;;;;;8.04;100.00;103328.51;1787412;77;938692;-72
2021/03/01 09:21:20;;;;;;;58.17;33.03;;;;;;;8.01;100.00;103331.14;1799097;78;937419;-72
2021/03/01 09:23:51;;;;;;;57.70;33.73;;;;;;;8.04;100.00;103319.68;1787103;78;937748;-72
2021/03/01 09:26:25;;;;;;;61.20;34.00;;;;;;;8.03;100.00;103336.48;1798997;78;938702;-71
2021/03/01 09:28:57;;;;;;;56.28;33.98;;;;;;;8.20;100.00;103334.52;1787074;78;945697;-73
2021/03/01 09:31:27;;;;;;;58.67;33.37;;;;;;;8.26;100.00;103335.58;1798816;78;937923;-73
2021/03/01 09:33:57;;;;;;;64.40;35.17;;;;;;;8.28;100.00;103333.47;1787198;78;937394;-72
2021/03/01 09:36:31;;;;;;;54.70;33.50;;;;;;;8.33;100.00;103332.34;1799089;78;938539;-71
2021/03/01 09:39:03;;;;;;;57.47;32.03;;;;;;;8.27;100.00;103331.75;1787063;78;938673;-73
2021/03/01 09:41:36;;;;;;;53.43;32.93;;;;;;;8.32;100.00;103325.09;1798708;77;936806;-71
2021/03/01 09:44:06;;;;;;;62.37;34.60;;;;;;;8.40;100.00;103322.64;1787279;78;938910;-70
2021/03/01 09:46:38;;;;;;;61.47;33.10;;;;;;;8.44;100.00;103318.39;1799034;78;936740;-70
2021/03/01 09:49:10;;;;;;;56.40;32.73;;;;;;;8.47;100.00;103313.84;1787091;78;938647;-71
2021/03/01 09:51:40;;;;;;;56.93;32.83;;;;;;;8.59;100.00;103318.54;1799079;78;936952;-71
2021/03/01 09:54:11;;;;;;;57.90;33.67;;;;;;;8.57;100.00;103311.48;1787088;77;938708;-70
2021/03/01 09:56:43;;;;;;;54.60;32.47;;;;;;;8.53;100.00;103306.05;1798962;78;936755;-71
2021/03/01 09:59:13;;;;;;;53.47;32.43;;;;;;;8.62;100.00;103319.48;1798875;77;938676;-71
2021/03/01 10:01:43;;;;;;;51.20;31.00;;;;;;;8.54;100.00;103306.38;1799000;78;936752;-72
2021/03/01 10:04:23;;;;;;;53.40;31.90;;;;;;;8.57;100.00;103304.56;1798761;78;939006;-72
2021/03/01 10:06:53;;;;;;;51.40;31.55;;;;;;;8.75;100.00;103305.31;1758121;79;938582;-71
2021/03/01 10:09:24;;;;;;;51.93;31.93;;;;;;;8.75;100.00;103305.31;1798972;78;938846;-71
2021/03/01 10:12:01;;;;;;;54.13;33.58;;;;;;;8.75;100.00;103305.31;1786035;78;938808;-71
2021/03/01 10:14:32;;;;;;;50.50;30.67;;;;;;;8.83;100.00;103305.95;1769904;80;937811;-71
2021/03/01 10:17:15;;;;;;;52.53;31.83;;;;;;;8.89;100.00;103300.09;1787201;78;937824;-72
2021/03/01 10:19:44;;;;;;;51.73;30.80;;;;;;;8.88;100.00;103301.15;1808163;78;937233;-71
2021/03/01 10:22:15;;;;;;;54.03;30.60;;;;;;;8.91;100.00;103297.41;1833083;76;937497;-71
2021/03/01 10:24:47;;;;;;;50.00;31.40;;;;;;;8.90;100.00;103296.27;1799099;78;936732;-72
2021/03/01 10:27:18;;;;;;;54.50;32.27;;;;;;;8.83;100.00;103298.16;1798944;78;938574;-72
2021/03/01 10:29:50;;;;;;;50.60;29.97;;;;;;;8.87;100.00;103296.14;1787120;78;938201;-72
2021/03/01 10:32:22;;;;;;;46.70;29.60;;;;;;;8.80;100.00;103297.22;1769709;80;938635;-71
2021/03/01 10:34:53;;;;;;;50.78;30.68;;;;;;;8.92;100.00;103294.97;1786998;78;938742;-72
2021/03/01 10:37:26;;;;;;;53.70;30.20;;;;;;;8.99;100.00;103291.64;1798791;78;938599;-72
2021/03/01 10:39:56;;;;;;;50.45;31.85;;;;;;;9.18;100.00;103300.16;1758271;80;938815;-72
2021/03/01 10:42:28;;;;;;;50.23;30.70;;;;;;;9.27;100.00;103295.55;1798971;78;937674;-71
2021/03/01 10:45:00;;;;;;;46.58;29.90;;;;;;;9.50;100.00;103287.58;1787033;78;937453;-72
2021/03/01 10:47:32;;;;;;;51.20;30.73;;;;;;;9.44;100.00;103289.00;1798794;77;938973;-72
2021/03/01 10:50:04;;;;;;;52.15;31.27;;;;;;;9.37;100.00;103286.78;1786891;78;938591;-72
2021/03/01 10:52:35;;;;;;;49.57;30.43;;;;;;;9.40;100.00;103287.20;1798973;78;936828;-72
2021/03/01 10:55:07;;;;;;;50.53;30.37;;;;;;;9.29;100.00;103285.08;1787060;78;938606;-71
2021/03/01 10:57:37;;;;;;;50.63;31.73;;;;;;;9.22;100.00;103284.25;1798882;78;936773;-71
2021/03/01 11:00:09;;;;;;;50.10;30.40;;;;;;;9.26;100.00;103286.05;1757753;80;938737;-71
2021/03/01 11:02:39;;;;;;;48.73;30.27;;;;;;;9.29;100.00;103287.00;1829970;77;936851;-72
2021/03/01 11:05:10;;;;;;;51.30;31.37;;;;;;;9.32;100.00;103281.03;1786931;78;938637;-71
2021/03/01 11:07:40;;;;;;;50.10;30.10;;;;;;;9.33;100.00;103284.10;1798956;78;936773;-71
2021/03/01 11:10:12;;;;;;;45.47;29.23;;;;;;;9.31;100.00;103273.78;1787200;78;938774;-71
2021/03/01 11:12:42;;;;;;;47.00;30.03;;;;;;;9.43;100.00;103272.02;1799152;78;936898;-70
2021/03/01 11:15:14;;;;;;;49.57;31.23;;;;;;;9.53;100.00;103275.20;1798888;78;938707;-71
2021/03/01 11:17:44;;;;;;;48.10;29.77;;;;;;;9.70;100.00;103266.70;1798923;78;936766;-71
2021/03/01 11:20:17;;;;;;;49.50;30.97;;;;;;;10.03;100.00;103261.81;1798839;78;938652;-72
2021/03/01 11:22:49;;;;;;;43.07;28.83;;;;;;;10.16;100.00;103250.33;1787182;78;940683;-73
2021/03/01 11:25:19;;;;;;;45.90;28.47;;;;;;;10.29;100.00;103255.80;1798888;78;940983;-71
2021/03/01 11:27:48;;;;;;;48.33;30.77;;;;;;;10.36;100.00;103254.66;1786962;78;940768;-72